Time,TemperatureF,DewpointF,PressureIn,WindDirection,WindDirectionDegrees,WindSpeedMPH,WindSpeedGustMPH,Humidity,HourlyPrecipIn,Conditions,Clouds,dailyrainin,SoftwareType,DateUTC
2013-08-16 00:13:00,58.0,53.0,30.11,SSE,150,1.0,4.0,82,0.00,,,0.00,,2013-08-16 04:13:00,
2013-08-16 00:23:00,58.0,52.0,30.11,West,276,1.0,5.0,81,0.00,,,0.00,,2013-08-16 04:23:00,
2013-08-16 00:42:00,59.0,53.0,30.11,SSW,210,1.0,4.0,81,0.00,,,0.00,,2013-08-16 04:42:00,
2013-08-16 00:54:00,58.0,52.0,30.11,WNW,282,0.0,2.0,81,0.00,,,0.00,,2013-08-16 04:54:00,
2013-08-16 01:12:00,58.0,53.0,30.11,SSW,205,0.0,1.0,82,0.00,,,0.00,,2013-08-16 05:12:00,
2013-08-16 01:22:00,57.0,52.0,30.11,SSW,200,0.0,2.0,84,0.00,,,0.00,,2013-08-16 05:22:00,
2013-08-16 01:42:00,57.0,53.0,30.10,SSW,208,0.0,2.0,85,0.00,,,0.00,,2013-08-16 05:42:00,
2013-08-16 03:00:00,58.0,53.0,30.10,South,171,1.0,3.0,84,0.00,,,0.00,,2013-08-16 07:00:00,
2013-08-16 03:11:00,58.0,54.0,30.10,South,188,1.0,3.0,85,0.00,,,0.00,,2013-08-16 07:11:00,
2013-08-16 03:21:00,58.0,54.0,30.10,SW,221,0.0,2.0,85,0.00,,,0.00,,2013-08-16 07:21:00,
2013-08-16 03:42:00,57.0,53.0,30.10,SSW,204,0.0,1.0,86,0.00,,,0.00,,2013-08-16 07:42:00,
2013-08-16 03:52:00,57.0,53.0,30.10,SSE,165,0.0,2.0,87,0.00,,,0.00,,2013-08-16 07:52:00,
2013-08-16 04:11:00,57.0,53.0,30.10,West,266,0.0,1.0,87,0.00,,,0.00,,2013-08-16 08:11:00,
2013-08-16 04:21:00,56.0,52.0,30.10,SW,218,0.0,1.0,88,0.00,,,0.00,,2013-08-16 08:21:00,
2013-08-16 04:42:00,56.0,53.0,30.10,South,169,1.0,1.0,89,0.00,,,0.00,,2013-08-16 08:42:00,
2013-08-16 04:52:00,55.0,52.0,30.10,SSE,158,1.0,2.0,90,0.00,,,0.00,,2013-08-16 08:52:00,
2013-08-16 05:11:00,55.0,52.0,30.10,SE,138,0.0,2.0,90,0.00,,,0.00,,2013-08-16 09:11:00,
2013-08-16 05:21:00,55.0,52.0,30.11,NW,304,0.0,2.0,90,0.00,,,0.00,,2013-08-16 09:21:00,
2013-08-16 05:42:00,55.0,52.0,30.11,NW,305,0.0,1.0,91,0.00,,,0.00,,2013-08-16 09:42:00,
2013-08-16 05:53:00,53.0,51.0,30.11,South,180,0.0,1.0,93,0.00,,,0.00,,2013-08-16 09:53:00,
2013-08-16 06:13:00,53.0,51.0,30.12,South,180,0.0,0.0,94,0.00,,,0.00,,2013-08-16 10:13:00,
2013-08-16 06:23:00,52.0,51.0,30.12,South,180,0.0,0.0,95,0.00,,,0.00,,2013-08-16 10:23:00,
2013-08-16 06:42:00,52.0,51.0,30.12,SSE,147,0.0,1.0,95,0.00,,,0.00,,2013-08-16 10:42:00,
2013-08-16 06:53:00,51.0,50.0,30.13,SSE,150,0.0,0.0,96,0.00,,,0.00,,2013-08-16 10:53:00,
2013-08-16 07:12:00,52.0,51.0,30.13,SSE,150,0.0,0.0,96,0.00,,,0.00,,2013-08-16 11:12:00,
2013-08-16 07:22:00,53.0,52.0,30.14,SSE,149,0.0,0.0,96,0.00,,,0.00,,2013-08-16 11:22:00,
2013-08-16 07:42:00,53.0,52.0,30.14,SSE,149,0.0,1.0,96,0.00,,,0.00,,2013-08-16 11:42:00,
2013-08-16 07:52:00,55.0,54.0,30.14,SSE,149,0.0,0.0,96,0.00,,,0.00,,2013-08-16 11:52:00,
2013-08-16 08:12:00,56.0,55.0,30.14,SSE,149,0.0,0.0,95,0.00,,,0.00,,2013-08-16 12:12:00,
2013-08-16 08:21:00,59.0,55.0,30.14,WSW,245,0.0,3.0,86,0.00,,,0.00,,2013-08-16 12:21:00,
2013-08-16 08:42:00,60.0,55.0,30.15,WSW,254,0.0,3.0,84,0.00,,,0.00,,2013-08-16 12:42:00,
2013-08-16 08:52:00,62.0,56.0,30.15,SW,218,1.0,5.0,81,0.00,,,0.00,,2013-08-16 12:52:00,
2013-08-16 09:11:00,63.0,56.0,30.14,West,274,0.0,3.0,79,0.00,,,0.00,,2013-08-16 13:11:00,
2013-08-16 09:22:00,65.0,57.0,30.15,WSW,243,2.0,4.0,75,0.00,,,0.00,,2013-08-16 13:22:00,
2013-08-16 09:42:00,65.0,55.0,30.15,WNW,290,2.0,5.0,71,0.00,,,0.00,,2013-08-16 13:42:00,
2013-08-16 09:53:00,68.0,58.0,30.15,West,276,1.0,4.0,70,0.00,,,0.00,,2013-08-16 13:53:00,
2013-08-16 10:11:00,68.0,57.0,30.15,WNW,295,2.0,7.0,67,0.00,,,0.00,,2013-08-16 14:11:00,
2013-08-16 10:22:00,68.0,57.0,30.16,WNW,283,2.0,6.0,68,0.00,,,0.00,,2013-08-16 14:22:00,
2013-08-16 10:42:00,68.0,56.0,30.16,North,350,3.0,6.0,66,0.00,,,0.00,,2013-08-16 14:42:00,
2013-08-16 10:52:00,70.0,56.0,30.16,SW,221,2.0,6.0,62,0.00,,,0.00,,2013-08-16 14:52:00,
2013-08-16 11:12:00,70.0,55.0,30.16,NW,312,2.0,5.0,60,0.00,,,0.00,,2013-08-16 15:12:00,
2013-08-16 11:22:00,70.0,55.0,30.16,NE,36,3.0,7.0,58,0.00,,,0.00,,2013-08-16 15:22:00,
2013-08-16 11:43:00,71.0,57.0,30.16,NNW,339,3.0,7.0,61,0.00,,,0.00,,2013-08-16 15:43:00,
2013-08-16 11:56:00,71.0,57.0,30.16,NNW,343,2.0,8.0,62,0.00,,,0.00,,2013-08-16 15:56:00,
2013-08-16 12:13:00,71.0,54.0,30.16,WNW,289,2.0,8.0,55,0.00,,,0.00,,2013-08-16 16:13:00,
2013-08-16 12:23:00,71.0,54.0,30.16,WNW,290,2.0,5.0,54,0.00,,,0.00,,2013-08-16 16:23:00,
2013-08-16 12:43:00,71.0,54.0,30.16,NNW,338,1.0,4.0,56,0.00,,,0.00,,2013-08-16 16:43:00,
2013-08-16 12:57:00,73.0,56.0,30.16,WNW,300,3.0,5.0,55,0.00,,,0.00,,2013-08-16 16:57:00,
2013-08-16 13:13:00,73.0,54.0,30.16,NNW,347,3.0,6.0,52,0.00,,,0.00,,2013-08-16 17:13:00,
2013-08-16 13:28:00,72.0,53.0,30.16,NW,309,3.0,8.0,52,0.00,,,0.00,,2013-08-16 17:28:00,
2013-08-16 13:47:00,73.0,55.0,30.16,NNE,21,2.0,7.0,53,0.00,,,0.00,,2013-08-16 17:47:00,
2013-08-16 14:00:00,74.0,54.0,30.16,North,4,2.0,5.0,50,0.00,,,0.00,,2013-08-16 18:00:00,
2013-08-16 14:15:00,74.0,55.0,30.15,NNW,339,3.0,5.0,52,0.00,,,0.00,,2013-08-16 18:15:00,
2013-08-16 14:28:00,73.0,54.0,30.15,WNW,293,3.0,5.0,51,0.00,,,0.00,,2013-08-16 18:28:00,
2013-08-16 14:50:00,-999.0,-99.9,30.15,West,262,2.0,5.0,48,0.00,,,0.00,,2013-08-16 18:50:00,
2013-08-16 15:14:00,75.0,56.0,30.15,NNW,339,3.0,5.0,52,0.00,,,0.00,,2013-08-16 19:14:00,
2013-08-16 15:25:00,74.0,55.0,30.15,NNW,346,1.0,3.0,52,0.00,,,0.00,,2013-08-16 19:25:00,
2013-08-16 15:46:00,75.0,55.0,30.15,North,8,2.0,5.0,50,0.00,,,0.00,,2013-08-16 19:46:00,
2013-08-16 15:55:00,75.0,57.0,30.15,SSW,210,3.0,5.0,53,0.00,,,0.00,,2013-08-16 19:55:00,
2013-08-16 16:11:00,76.0,57.0,30.15,South,191,2.0,4.0,51,0.00,,,0.00,,2013-08-16 20:11:00,
2013-08-16 16:23:00,74.0,55.0,30.15,NE,42,0.0,2.0,52,0.00,,,0.00,,2013-08-16 20:23:00,
2013-08-16 16:44:00,74.0,56.0,30.15,NW,308,1.0,3.0,54,0.00,,,0.00,,2013-08-16 20:44:00,
2013-08-16 16:52:00,76.0,58.0,30.14,ENE,59,0.0,3.0,54,0.00,,,0.00,,2013-08-16 20:52:00,
2013-08-16 17:11:00,76.0,57.0,30.14,NNE,26,2.0,4.0,52,0.00,,,0.00,,2013-08-16 21:11:00,
2013-08-16 17:25:00,74.0,58.0,30.14,NW,311,1.0,4.0,57,0.00,,,0.00,,2013-08-16 21:25:00,
2013-08-16 17:40:00,-999.0,-99.9,30.15,WNW,293,1.0,2.0,-999,0.00,,,0.00,,2013-08-16 21:40:00,
2013-08-16 17:54:00,76.0,57.0,30.15,SSW,207,0.0,2.0,52,0.00,,,0.00,,2013-08-16 21:54:00,
2013-08-16 18:13:00,76.0,58.0,30.15,ESE,111,0.0,1.0,54,0.00,,,0.00,,2013-08-16 22:13:00,
2013-08-16 18:24:00,76.0,59.0,30.15,SE,146,1.0,2.0,56,0.00,,,0.00,,2013-08-16 22:24:00,
2013-08-16 18:43:00,76.0,58.0,30.15,SE,139,0.0,1.0,54,0.00,,,0.00,,2013-08-16 22:43:00,
2013-08-16 18:52:00,75.0,59.0,30.15,SE,129,1.0,1.0,57,0.00,,,0.00,,2013-08-16 22:52:00,
2013-08-16 19:12:00,74.0,58.0,30.16,ESE,114,0.0,1.0,58,0.00,,,0.00,,2013-08-16 23:12:00,
2013-08-16 19:23:00,75.0,61.0,30.16,ESE,115,0.0,0.0,62,0.00,,,0.00,,2013-08-16 23:23:00,
2013-08-16 19:42:00,73.0,61.0,30.16,ESE,115,0.0,1.0,67,0.00,,,0.00,,2013-08-16 23:42:00,
2013-08-16 19:52:00,68.0,61.0,30.16,ESE,120,0.0,1.0,77,0.00,,,0.00,,2013-08-16 23:52:00,
2013-08-16 21:42:00,59.0,57.0,30.18,ESE,120,0.0,0.0,93,0.00,,,0.00,,2013-08-17 01:42:00,
2013-08-16 21:52:00,58.0,56.0,30.19,ESE,120,0.0,0.0,94,0.00,,,0.00,,2013-08-17 01:52:00,
2013-08-16 22:11:00,58.0,57.0,30.19,ESE,120,0.0,1.0,95,0.00,,,0.00,,2013-08-17 02:11:00,
2013-08-16 22:21:00,57.0,56.0,30.19,ESE,120,0.0,0.0,95,0.00,,,0.00,,2013-08-17 02:21:00,
2013-08-16 22:42:00,57.0,56.0,30.19,ESE,120,0.0,0.0,95,0.00,,,0.00,,2013-08-17 02:42:00,
2013-08-16 22:52:00,57.0,56.0,30.18,ESE,120,0.0,0.0,96,0.00,,,0.00,,2013-08-17 02:52:00,
2013-08-16 23:11:00,57.0,56.0,30.19,ESE,120,0.0,0.0,96,0.00,,,0.00,,2013-08-17 03:11:00,
2013-08-16 23:22:00,57.0,56.0,30.19,ESE,120,0.0,0.0,96,0.00,,,0.00,,2013-08-17 03:22:00,
2013-08-16 23:43:00,56.0,55.0,30.19,ESE,120,0.0,0.0,96,0.00,,,0.00,,2013-08-17 03:43:00,
2013-08-16 23:53:00,56.0,55.0,30.19,ESE,120,0.0,0.0,96,0.00,,,0.00,,2013-08-17 03:53:00,